Time;durP1;ratioP1;P1;durP2;ratioP2;P2;SDS_P1;SDS_P2;PMS_P1;PMS_P2;Temp;Humidity;BMP_temperature;BMP_pressure;BME280_temperature;BME280_humidity;BME280_pressure;Samples;Min_cycle;Max_cycle;Signal;HPM_P1;HPM_P2
2021/09/22 00:00:08;;;;;;;45.35;25.83;;;;;;;11.80;70.10;100661.94;5109761;28;20039;-73
2021/09/22 00:02:35;;;;;;;44.75;28.77;;;;;;;11.78;70.05;100663.84;5111074;28;20116;-75
2021/09/22 00:05:04;;;;;;;45.38;26.55;;;;;;;11.83;69.96;100659.09;5109142;28;20043;-72
2021/09/22 00:07:31;;;;;;;44.28;25.20;;;;;;;11.84;69.81;100666.06;5108425;28;20048;-75
2021/09/22 00:09:58;;;;;;;50.38;28.88;;;;;;;11.83;69.74;100664.38;5113200;28;20414;-78
2021/09/22 00:12:25;;;;;;;52.63;30.88;;;;;;;11.81;69.74;100661.84;5119991;28;20032;-73
2021/09/22 00:14:52;;;;;;;52.63;31.70;;;;;;;11.79;69.81;100657.59;5112287;28;20047;-75
2021/09/22 00:17:19;;;;;;;46.85;29.02;;;;;;;11.78;69.82;100658.56;5109785;28;20043;-73
2021/09/22 00:19:46;;;;;;;44.70;26.85;;;;;;;11.78;69.78;100655.91;5117754;28;20621;-76
2021/09/22 00:22:14;;;;;;;55.05;30.30;;;;;;;11.78;69.95;100654.09;5118063;28;20229;-77
2021/09/22 00:24:41;;;;;;;46.90;27.70;;;;;;;11.78;69.72;100650.63;5110920;28;20050;-77
2021/09/22 00:27:08;;;;;;;49.65;27.45;;;;;;;11.82;69.63;100658.22;5114195;28;20044;-77
2021/09/22 00:29:35;;;;;;;51.45;28.88;;;;;;;11.82;69.61;100658.22;5122761;28;20071;-77
2021/09/22 00:32:01;;;;;;;46.28;26.95;;;;;;;11.89;69.57;100647.22;5113629;28;20046;-77
2021/09/22 00:34:28;;;;;;;49.03;29.00;;;;;;;11.84;69.66;100652.81;5118858;28;20047;-78
2021/09/22 00:36:55;;;;;;;53.10;29.10;;;;;;;11.88;69.39;100656.09;5108859;28;20075;-77
2021/09/22 00:39:24;;;;;;;48.20;28.83;;;;;;;11.86;69.69;100642.97;5110422;28;20043;-75
2021/09/22 00:41:50;;;;;;;49.03;27.50;;;;;;;11.82;69.57;100644.16;5108278;28;20052;-71
2021/09/22 00:44:17;;;;;;;45.90;25.95;;;;;;;11.86;69.48;100642.97;5110239;28;20032;-77
2021/09/22 00:46:44;;;;;;;51.83;27.75;;;;;;;11.87;69.52;100631.44;5109496;28;20130;-75
2021/09/22 00:49:11;;;;;;;52.63;28.77;;;;;;;11.85;69.50;100641.28;5108962;28;20050;-76
2021/09/22 00:51:38;;;;;;;52.90;32.90;;;;;;;11.83;69.41;100640.56;5109895;28;20051;-73
2021/09/22 00:54:05;;;;;;;50.20;28.52;;;;;;;11.79;69.56;100636.41;5108725;28;20054;-73
2021/09/22 00:56:34;;;;;;;47.25;28.77;;;;;;;11.77;69.42;100635.69;5109064;28;20051;-78
2021/09/22 00:59:00;;;;;;;48.38;27.10;;;;;;;11.77;69.41;100635.69;5109969;28;20051;-77
2021/09/22 01:01:27;;;;;;;56.25;30.65;;;;;;;11.77;69.42;100635.69;5109870;28;20047;-72
2021/09/22 01:03:54;;;;;;;54.35;29.80;;;;;;;11.77;69.26;100627.75;5111047;28;20048;-76
2021/09/22 01:06:21;;;;;;;50.13;27.92;;;;;;;11.74;69.40;100627.94;5111988;28;20129;-78
2021/09/22 01:08:48;;;;;;;53.00;27.67;;;;;;;11.75;69.28;100627.00;5114454;28;20069;-75
2021/09/22 01:11:15;;;;;;;62.42;32.35;;;;;;;11.75;69.37;100624.38;5117632;28;20039;-75
2021/09/22 01:13:44;;;;;;;60.95;32.22;;;;;;;11.73;69.40;100631.56;5122423;28;20511;-79
2021/09/22 01:16:11;;;;;;;58.63;32.03;;;;;;;11.70;69.62;100626.50;5126457;28;20046;-72
2021/09/22 01:18:38;;;;;;;60.85;31.85;;;;;;;11.73;69.50;100626.28;5127080;28;20054;-72
2021/09/22 01:21:05;;;;;;;60.83;34.55;;;;;;;11.72;69.59;100630.75;5124297;28;20044;-78
2021/09/22 01:23:33;;;;;;;67.10;33.38;;;;;;;11.75;69.57;100630.50;5118936;28;20045;-77
2021/09/22 01:26:00;;;;;;;65.00;34.55;;;;;;;11.77;69.59;100627.75;5123144;28;20103;-74
2021/09/22 01:28:29;;;;;;;63.78;30.52;;;;;;;11.76;69.50;100631.38;5117414;28;20044;-72
2021/09/22 01:31:00;;;;;;;60.05;33.35;;;;;;;11.77;69.67;100631.22;5125303;28;20063;-74
2021/09/22 01:33:27;;;;;;;59.60;34.55;;;;;;;11.78;69.57;100618.88;5126974;28;20036;-74
2021/09/22 01:35:54;;;;;;;56.50;31.83;;;;;;;11.76;69.55;100621.63;5122947;28;20028;-72
2021/09/22 01:38:24;;;;;;;62.35;34.33;;;;;;;11.72;69.70;100620.16;5122568;28;20058;-75
2021/09/22 01:40:59;;;;;;;56.05;33.33;;;;;;;11.74;69.66;100620.00;5116211;28;20479;-72
2021/09/22 01:43:28;;;;;;;63.95;33.95;;;;;;;11.75;69.65;100619.06;5110334;28;20048;-78
2021/09/22 01:45:55;;;;;;;61.78;30.55;;;;;;;11.73;69.58;100615.69;5109549;28;20054;-77
2021/09/22 01:48:22;;;;;;;61.42;29.70;;;;;;;11.73;69.67;100610.41;5109733;28;20040;-78
2021/09/22 01:50:49;;;;;;;66.63;33.30;;;;;;;11.67;69.88;100612.53;5111715;28;20689;-71
2021/09/22 01:53:16;;;;;;;60.45;30.60;;;;;;;11.66;69.81;100617.94;5107942;28;20146;-72
2021/09/22 01:55:45;;;;;;;61.00;33.75;;;;;;;11.61;70.11;100612.97;5107821;28;20043;-78
2021/09/22 01:58:14;;;;;;;62.75;29.88;;;;;;;11.58;69.97;100607.91;5108955;28;20043;-72
2021/09/22 02:00:42;;;;;;;50.95;29.38;;;;;;;11.50;70.23;100609.38;5107894;28;20040;-71
2021/09/22 02:03:08;;;;;;;49.17;27.38;;;;;;;11.46;70.07;100608.75;5107897;28;20059;-77
2021/09/22 02:05:35;;;;;;;42.83;25.98;;;;;;;11.41;70.38;100605.59;5107589;28;20044;-73
2021/09/22 02:08:03;;;;;;;42.55;28.60;;;;;;;11.35;70.45;100606.03;5105213;28;20067;-69
2021/09/22 02:10:30;;;;;;;51.97;31.73;;;;;;;11.37;70.22;100609.41;5107836;28;20055;-71
2021/09/22 02:12:58;;;;;;;56.15;31.17;;;;;;;11.39;70.23;100605.69;5107663;28;20506;-71
2021/09/22 02:15:27;;;;;;;51.65;31.20;;;;;;;11.40;70.23;100606.56;5107554;28;20058;-75
2021/09/22 02:17:54;;;;;;;47.17;29.33;;;;;;;11.40;70.14;100601.28;5109397;28;20044;-72
2021/09/22 02:20:21;;;;;;;60.95;32.67;;;;;;;11.39;70.18;100602.22;5109638;28;20086;-75
2021/09/22 02:22:48;;;;;;;59.20;36.53;;;;;;;11.41;70.24;100600.31;5111661;28;20657;-71
2021/09/22 02:25:16;;;;;;;63.90;33.45;;;;;;;11.41;70.31;100590.56;5112295;28;20055;-77
2021/09/22 02:27:42;;;;;;;55.50;31.23;;;;;;;11.45;70.14;100588.53;5111678;28;20043;-76
2021/09/22 02:30:13;;;;;;;59.17;30.90;;;;;;;11.44;70.17;100592.16;5110916;28;20166;-77
2021/09/22 02:32:42;;;;;;;63.63;36.70;;;;;;;11.47;70.13;100595.44;5110921;28;20055;-70
2021/09/22 02:35:10;;;;;;;59.65;34.08;;;;;;;11.50;70.03;100594.34;5110554;28;20043;-71
2021/09/22 02:37:38;;;;;;;44.63;27.95;;;;;;;11.54;69.92;100594.97;5108009;28;20047;-70
2021/09/22 02:40:08;;;;;;;53.45;32.45;;;;;;;11.56;69.82;100603.66;5110940;28;20040;-70
2021/09/22 02:42:36;;;;;;;55.80;32.55;;;;;;;11.53;69.76;100599.44;5110456;28;20109;-76
2021/09/22 02:45:03;;;;;;;48.13;30.35;;;;;;;11.56;69.83;100598.34;5109747;28;20062;-77
2021/09/22 02:47:30;;;;;;;51.08;29.67;;;;;;;11.52;69.70;100600.38;5112580;28;20395;-71
2021/09/22 02:49:59;;;;;;;52.67;31.38;;;;;;;11.55;69.74;100600.16;5110456;28;20445;-73
2021/09/22 02:52:27;;;;;;;44.05;27.48;;;;;;;11.54;69.47;100595.84;5110386;28;20047;-75
2021/09/22 02:54:54;;;;;;;50.75;30.15;;;;;;;11.56;69.66;100601.00;5111454;28;20043;-77
2021/09/22 02:57:20;;;;;;;43.40;28.42;;;;;;;11.59;69.45;100604.28;5111136;28;20047;-72
2021/09/22 02:59:47;;;;;;;45.38;29.95;;;;;;;11.54;69.42;100603.78;5110234;28;20388;-71
2021/09/22 03:02:14;;;;;;;43.95;27.10;;;;;;;11.52;69.50;100604.84;5110145;28;20139;-71
2021/09/22 03:04:41;;;;;;;43.33;26.52;;;;;;;11.49;69.41;100600.63;5110897;28;20040;-72
2021/09/22 03:07:10;;;;;;;43.63;24.95;;;;;;;11.58;69.54;100609.72;5109392;28;20051;-78
2021/09/22 03:09:36;;;;;;;41.22;26.48;;;;;;;11.57;69.40;100611.47;5111383;28;20039;-73
2021/09/22 03:12:04;;;;;;;42.13;27.60;;;;;;;11.56;69.33;100615.09;5111165;28;20047;-75
2021/09/22 03:14:31;;;;;;;44.35;26.30;;;;;;;11.54;69.33;100611.72;5110451;28;20051;-71
2021/09/22 03:16:58;;;;;;;44.78;27.58;;;;;;;11.55;69.13;100613.41;5111151;28;20379;-69
2021/09/22 03:19:25;;;;;;;41.15;29.02;;;;;;;11.60;69.14;100618.38;5111378;28;20046;-78
2021/09/22 03:21:51;;;;;;;41.33;27.70;;;;;;;11.52;69.12;100618.91;5110272;28;20044;-76
2021/09/22 03:24:20;;;;;;;40.15;25.70;;;;;;;11.53;69.19;100620.59;5110929;28;20055;-72
2021/09/22 03:26:47;;;;;;;40.47;25.75;;;;;;;11.51;69.30;100625.16;5112694;28;20044;-77
2021/09/22 03:29:16;;;;;;;40.45;24.42;;;;;;;11.53;69.22;100615.31;5111834;28;20055;-78
2021/09/22 03:31:44;;;;;;;37.97;22.65;;;;;;;11.59;69.08;100620.16;5112051;28;20052;-75
2021/09/22 03:34:11;;;;;;;40.35;26.23;;;;;;;11.58;68.96;100623.78;5111816;28;20051;-75
2021/09/22 03:36:38;;;;;;;36.13;24.83;;;;;;;11.56;69.00;100623.03;5119058;28;20655;-75
2021/09/22 03:39:05;;;;;;;40.63;23.88;;;;;;;11.62;69.05;100632.34;5111393;28;20126;-73
2021/09/22 03:41:34;;;;;;;40.90;25.70;;;;;;;11.66;69.02;100632.00;5111172;28;20475;-71
2021/09/22 03:44:01;;;;;;;39.03;25.20;;;;;;;11.65;68.91;100630.31;5110863;28;20077;-70
2021/09/22 03:46:28;;;;;;;40.58;23.95;;;;;;;11.64;68.99;100623.31;5116786;28;20030;-73
2021/09/22 03:48:54;;;;;;;38.47;26.42;;;;;;;11.63;68.87;100624.28;5115340;28;20043;-71
2021/09/22 03:51:22;;;;;;;35.67;23.25;;;;;;;11.67;68.88;100632.84;5110649;28;20047;-77
2021/09/22 03:53:49;;;;;;;36.75;21.75;;;;;;;11.71;68.85;100630.84;5111703;28;20039;-79
2021/09/22 03:56:16;;;;;;;42.08;27.27;;;;;;;11.66;68.97;100634.63;5110401;28;20074;-71
2021/09/22 03:58:44;;;;;;;39.28;26.42;;;;;;;11.64;68.83;100633.91;5110035;28;20054;-78
2021/09/22 04:01:13;;;;;;;37.17;24.58;;;;;;;11.62;68.81;100638.47;5109985;28;20040;-70
2021/09/22 04:03:40;;;;;;;37.90;23.85;;;;;;;11.67;68.70;100633.69;5110257;28;20639;-78
2021/09/22 04:06:06;;;;;;;40.00;25.33;;;;;;;11.63;68.95;100634.00;5110935;28;20051;-78
2021/09/22 04:08:33;;;;;;;38.00;25.75;;;;;;;11.62;68.96;100625.22;5109502;28;20043;-79
2021/09/22 04:11:00;;;;;;;38.95;24.90;;;;;;;11.62;68.87;100630.53;5110845;28;20058;-76
2021/09/22 04:13:27;;;;;;;42.92;25.25;;;;;;;11.64;68.97;100630.44;5110721;28;20048;-79
2021/09/22 04:15:57;;;;;;;33.67;21.58;;;;;;;11.70;68.77;100627.31;5109810;28;20050;-76
2021/09/22 04:18:24;;;;;;;39.22;23.55;;;;;;;11.72;68.61;100630.75;5109711;28;20044;-71
2021/09/22 04:20:51;;;;;;;35.42;22.35;;;;;;;11.69;68.56;100628.31;5109857;28;20742;-78
2021/09/22 04:23:17;;;;;;;38.13;24.13;;;;;;;11.67;68.78;100623.13;5110339;28;20104;-71
2021/09/22 04:25:44;;;;;;;36.15;23.20;;;;;;;11.64;68.77;100628.63;5108830;28;20039;-75
2021/09/22 04:28:12;;;;;;;36.78;23.50;;;;;;;11.63;68.64;100628.72;5109199;28;20052;-71
2021/09/22 04:30:38;;;;;;;38.35;23.70;;;;;;;11.65;68.48;100632.97;5109737;28;20039;-74
2021/09/22 04:33:07;;;;;;;32.88;20.70;;;;;;;11.66;68.50;100632.00;5109717;28;20491;-78
2021/09/22 04:35:34;;;;;;;36.70;24.45;;;;;;;11.65;68.56;100637.41;5110695;28;20135;-73
2021/09/22 04:38:02;;;;;;;37.85;24.05;;;;;;;11.66;68.38;100637.28;5090624;27;20046;-73
2021/09/22 04:40:31;;;;;;;34.38;23.73;;;;;;;11.61;68.54;100638.56;5119449;27;20065;-72
2021/09/22 04:42:58;;;;;;;37.45;22.75;;;;;;;11.55;68.78;100644.31;5109549;27;20107;-70
2021/09/22 04:45:28;;;;;;;38.72;22.65;;;;;;;11.61;68.72;100643.84;5121086;27;20040;-70
2021/09/22 04:47:55;;;;;;;36.45;23.50;;;;;;;11.60;68.85;100648.31;5117839;27;20500;-71
2021/09/22 04:50:28;;;;;;;35.28;23.58;;;;;;;11.61;68.67;100646.50;5120374;27;20585;-71
2021/09/22 04:52:58;;;;;;;39.38;23.92;;;;;;;11.63;68.58;100641.94;5131076;27;20059;-73
2021/09/22 04:55:26;;;;;;;37.80;21.00;;;;;;;11.62;68.65;100646.41;5071251;27;20054;-78
2021/09/22 04:57:53;;;;;;;37.08;22.42;;;;;;;11.64;68.64;100646.28;5108097;27;20043;-69
2021/09/22 05:00:20;;;;;;;38.85;23.67;;;;;;;11.66;68.61;100647.03;5088951;28;20498;-72
2021/09/22 05:02:46;;;;;;;37.30;24.33;;;;;;;11.69;68.38;100649.47;5114742;27;20055;-73
2021/09/22 05:05:14;;;;;;;40.17;26.00;;;;;;;11.70;68.35;100655.59;5130331;27;20043;-69
2021/09/22 05:07:42;;;;;;;39.63;24.67;;;;;;;11.81;68.18;100655.66;5103473;27;20071;-69
2021/09/22 05:10:10;;;;;;;37.80;23.13;;;;;;;11.82;68.10;100657.38;5088978;28;20051;-76
2021/09/22 05:12:37;;;;;;;35.45;22.52;;;;;;;11.89;67.93;100658.63;5089806;28;20052;-75
2021/09/22 05:15:04;;;;;;;36.17;25.75;;;;;;;11.86;67.88;100664.13;5088892;28;20048;-77
2021/09/22 05:17:31;;;;;;;32.40;19.90;;;;;;;11.91;67.91;100662.03;5053630;28;20488;-79
2021/09/22 05:19:58;;;;;;;37.22;23.70;;;;;;;11.95;67.93;100663.50;5087442;28;20577;-70
2021/09/22 05:22:25;;;;;;;39.17;24.65;;;;;;;12.02;67.76;100664.75;5086882;28;20058;-69
2021/09/22 05:24:54;;;;;;;33.80;22.45;;;;;;;11.97;67.89;100661.59;5114441;27;20055;-75
2021/09/22 05:27:21;;;;;;;34.42;21.42;;;;;;;12.00;67.64;100671.97;5113079;28;20040;-69
2021/09/22 05:29:48;;;;;;;36.35;25.42;;;;;;;11.95;67.56;100673.25;5113656;28;20453;-77
2021/09/22 05:32:15;;;;;;;33.65;21.83;;;;;;;11.95;67.51;100666.16;5108338;28;20510;-68
2021/09/22 05:34:41;;;;;;;40.85;26.42;;;;;;;12.01;67.21;100672.81;5108649;28;20175;-73
2021/09/22 05:37:10;;;;;;;41.65;24.77;;;;;;;12.09;67.32;100670.47;5106642;28;20040;-78
2021/09/22 05:39:39;;;;;;;43.83;31.00;;;;;;;12.15;67.19;100669.16;5107690;28;20158;-73
2021/09/22 05:42:07;;;;;;;36.03;24.02;;;;;;;12.21;67.05;100674.03;5109508;28;20115;-69
2021/09/22 05:44:34;;;;;;;38.30;27.63;;;;;;;12.23;67.05;100667.66;5109424;28;20055;-70
2021/09/22 05:47:01;;;;;;;32.28;22.40;;;;;;;12.19;66.97;100678.56;5107717;28;20582;-69
2021/09/22 05:49:28;;;;;;;41.03;26.35;;;;;;;12.19;66.89;100671.50;5107906;28;20047;-71
2021/09/22 05:51:55;;;;;;;40.75;25.73;;;;;;;12.22;67.11;100687.13;5108310;28;20052;-74
2021/09/22 05:54:23;;;;;;;41.60;26.27;;;;;;;12.20;66.90;100689.06;5108072;28;20138;-70
2021/09/22 05:56:51;;;;;;;36.17;25.02;;;;;;;12.25;66.90;100683.44;5111500;28;20048;-72
2021/09/22 05:59:23;;;;;;;28.67;21.67;;;;;;;12.18;66.75;100692.78;5098807;28;20043;-69
2021/09/22 06:01:49;;;;;;;36.03;23.73;;;;;;;12.19;66.74;100686.53;5109125;27;20044;-74
2021/09/22 06:04:19;;;;;;;32.35;22.65;;;;;;;12.16;66.66;100692.91;5110331;28;20499;-74
2021/09/22 06:06:46;;;;;;;31.73;22.77;;;;;;;12.18;66.48;100693.63;5107436;28;20047;-72
2021/09/22 06:09:15;;;;;;;32.33;22.40;;;;;;;12.23;66.46;100694.13;5110897;28;20209;-79
2021/09/22 06:11:42;;;;;;;33.05;21.75;;;;;;;12.28;66.29;100688.53;5111292;28;20655;-70
2021/09/22 06:14:09;;;;;;;31.05;22.10;;;;;;;12.21;66.21;100696.06;5110078;28;20078;-75
2021/09/22 06:16:37;;;;;;;33.38;23.13;;;;;;;12.22;66.46;100696.91;5107901;28;20768;-70
2021/09/22 06:19:06;;;;;;;33.03;21.88;;;;;;;12.33;66.19;100696.13;5107095;28;20032;-71
2021/09/22 06:21:33;;;;;;;31.45;22.08;;;;;;;12.45;65.83;100702.34;5109547;28;20038;-70
2021/09/22 06:24:00;;;;;;;33.10;20.90;;;;;;;12.57;65.74;100707.56;5108542;28;20130;-71
2021/09/22 06:26:27;;;;;;;28.83;18.42;;;;;;;12.66;65.61;100705.19;5111008;28;20048;-78
2021/09/22 06:28:54;;;;;;;32.95;22.05;;;;;;;12.67;65.62;100718.34;5112908;28;20463;-73
2021/09/22 06:31:22;;;;;;;30.00;19.30;;;;;;;12.68;65.41;100713.91;5108119;27;20064;-72
2021/09/22 06:33:50;;;;;;;31.60;22.35;;;;;;;12.68;65.17;100717.38;5102740;28;20063;-76
2021/09/22 06:36:17;;;;;;;29.00;23.58;;;;;;;12.59;64.88;100718.91;5109526;28;20048;-75
2021/09/22 06:38:44;;;;;;;26.38;19.90;;;;;;;12.57;64.83;100720.00;5102747;28;20040;-77
2021/09/22 06:41:11;;;;;;;32.50;21.90;;;;;;;12.56;64.83;100721.78;5107296;28;20036;-75
2021/09/22 06:43:38;;;;;;;28.70;21.10;;;;;;;12.69;64.78;100716.41;5107187;28;20044;-72
2021/09/22 06:46:05;;;;;;;30.60;21.90;;;;;;;12.83;64.50;100720.69;5106373;28;20036;-70
2021/09/22 06:48:32;;;;;;;27.45;20.08;;;;;;;12.76;64.48;100715.00;5107281;28;20538;-74
2021/09/22 06:51:01;;;;;;;32.10;21.70;;;;;;;12.93;64.12;100718.22;5106818;28;20043;-72
2021/09/22 06:53:28;;;;;;;27.60;21.45;;;;;;;12.91;63.80;100714.81;5118938;28;20051;-75
2021/09/22 06:55:55;;;;;;;27.92;22.52;;;;;;;12.87;63.77;100716.00;5107189;28;20044;-73
2021/09/22 06:58:21;;;;;;;30.88;23.15;;;;;;;12.85;64.20;100721.41;5106024;28;20080;-74
2021/09/22 07:00:48;;;;;;;37.40;25.27;;;;;;;12.94;64.09;100718.06;5113275;28;20510;-71
2021/09/22 07:03:15;;;;;;;29.77;22.17;;;;;;;12.97;64.20;100717.03;5112284;28;20051;-76
2021/09/22 07:05:43;;;;;;;32.58;21.67;;;;;;;13.01;64.01;100723.78;5106418;28;20040;-73
2021/09/22 07:08:12;;;;;;;28.63;22.25;;;;;;;13.01;63.72;100723.78;5106854;28;20039;-72
2021/09/22 07:10:40;;;;;;;31.38;21.60;;;;;;;13.00;64.17;100727.41;5089074;28;20051;-75
2021/09/22 07:13:07;;;;;;;35.65;24.70;;;;;;;12.98;63.69;100721.34;5108279;28;20660;-75
2021/09/22 07:15:35;;;;;;;26.67;20.77;;;;;;;13.06;63.57;100732.22;5118877;28;20095;-76
2021/09/22 07:18:02;;;;;;;87.18;39.90;;;;;;;13.17;63.57;100729.59;5122885;28;20032;-73
2021/09/22 07:20:29;;;;;;;29.75;22.48;;;;;;;13.05;63.39;100743.78;5120606;28;20047;-72
2021/09/22 07:22:57;;;;;;;26.63;20.58;;;;;;;13.03;63.39;100737.75;5120009;28;20083;-73
2021/09/22 07:25:25;;;;;;;28.17;19.90;;;;;;;13.16;63.28;100738.53;5123535;28;20044;-71
2021/09/22 07:27:52;;;;;;;26.38;18.83;;;;;;;13.20;62.91;100737.34;5120615;28;20075;-73
2021/09/22 07:30:19;;;;;;;25.30;19.25;;;;;;;13.27;63.08;100747.47;5117476;28;20111;-74
2021/09/22 07:32:49;;;;;;;26.17;19.55;;;;;;;13.34;63.00;100746.06;5118384;27;20629;-72
2021/09/22 07:35:17;;;;;;;23.58;20.85;;;;;;;13.37;61.95;100749.34;5087397;28;20058;-75
2021/09/22 07:37:45;;;;;;;25.77;20.10;;;;;;;13.33;62.37;100752.38;5086905;28;20095;-76
2021/09/22 07:40:14;;;;;;;24.48;18.48;;;;;;;13.27;62.22;100748.34;5089852;28;20135;-72
2021/09/22 07:42:43;;;;;;;24.30;17.15;;;;;;;13.43;61.93;100753.31;5085332;28;20047;-72
2021/09/22 07:45:11;;;;;;;26.40;19.88;;;;;;;13.55;61.92;100749.75;5087287;28;20130;-72
2021/09/22 07:47:39;;;;;;;23.63;20.52;;;;;;;13.65;61.74;100754.34;5088712;28;20060;-72
2021/09/22 07:50:08;;;;;;;20.17;16.60;;;;;;;13.54;60.98;100750.72;5089180;28;20054;-70
2021/09/22 07:52:35;;;;;;;25.70;20.02;;;;;;;13.50;61.41;100756.38;5086725;28;20103;-71
2021/09/22 07:55:03;;;;;;;24.27;17.70;;;;;;;13.67;61.67;100755.09;5066742;28;20650;-71
2021/09/22 07:57:30;;;;;;;23.75;19.23;;;;;;;13.70;61.42;100757.47;5083709;28;20052;-70
2021/09/22 07:59:59;;;;;;;21.35;15.48;;;;;;;13.67;60.88;100755.09;5085672;28;20052;-71
2021/09/22 08:02:26;;;;;;;26.80;17.80;;;;;;;13.65;60.71;100759.63;5083688;28;20048;-70
2021/09/22 08:04:53;;;;;;;21.70;17.20;;;;;;;13.63;60.81;100756.25;5084869;28;20052;-69
2021/09/22 08:07:20;;;;;;;24.48;18.63;;;;;;;13.70;61.10;100755.69;5083300;28;20048;-69
2021/09/22 08:09:47;;;;;;;22.52;19.25;;;;;;;13.69;61.19;100761.13;5083556;28;20055;-71
2021/09/22 08:12:14;;;;;;;24.80;19.27;;;;;;;13.76;61.30;100757.03;5086483;28;20044;-71
2021/09/22 08:14:41;;;;;;;25.10;20.42;;;;;;;13.73;60.61;100760.75;5086247;28;20048;-70
2021/09/22 08:17:12;;;;;;;24.15;19.55;;;;;;;13.70;60.44;100761.00;5083531;28;20415;-73
2021/09/22 08:19:39;;;;;;;22.88;17.20;;;;;;;13.72;60.28;100764.38;5084164;28;20615;-70
2021/09/22 08:22:06;;;;;;;23.52;18.63;;;;;;;13.76;60.41;100764.97;5057062;28;20045;-74
2021/09/22 08:24:33;;;;;;;30.15;18.98;;;;;;;13.84;60.31;100759.06;5073230;28;20052;-71
2021/09/22 08:27:01;;;;;;;28.15;21.35;;;;;;;13.87;60.28;100754.38;5097936;28;20041;-74
2021/09/22 08:29:28;;;;;;;27.63;19.42;;;;;;;14.00;60.42;100751.59;5089921;28;20491;-74
2021/09/22 08:31:54;;;;;;;23.35;18.15;;;;;;;14.28;60.09;100762.69;5085168;28;20048;-73
2021/09/22 08:34:23;;;;;;;26.63;19.55;;;;;;;14.52;59.58;100758.03;5099608;28;20495;-75
2021/09/22 08:36:51;;;;;;;31.23;23.50;;;;;;;14.34;59.17;100752.38;5109590;28;20067;-73
2021/09/22 08:39:19;;;;;;;30.27;22.92;;;;;;;14.32;59.33;100757.00;5112096;28;20083;-74
2021/09/22 08:41:48;;;;;;;30.65;23.70;;;;;;;14.43;59.55;100760.59;5106729;28;20502;-72
2021/09/22 08:44:17;;;;;;;25.02;19.23;;;;;;;14.45;58.68;100756.00;5109549;28;20116;-75
2021/09/22 08:46:45;;;;;;;24.90;22.05;;;;;;;14.47;58.39;100754.91;5090222;28;20043;-74
2021/09/22 08:49:14;;;;;;;26.73;23.80;;;;;;;14.34;58.29;100754.22;5108228;28;20051;-74
2021/09/22 08:51:44;;;;;;;26.13;23.52;;;;;;;14.24;58.97;100748.81;5100834;28;20079;-72
2021/09/22 08:54:11;;;;;;;27.17;21.92;;;;;;;14.21;59.14;100751.69;5094410;28;20199;-72
2021/09/22 08:56:40;;;;;;;27.95;21.08;;;;;;;14.20;59.33;100757.97;5108305;28;20044;-75
2021/09/22 08:59:08;;;;;;;31.33;23.67;;;;;;;14.13;59.38;100757.63;5105620;28;20043;-74
2021/09/22 09:01:35;;;;;;;25.70;21.80;;;;;;;14.29;59.36;100754.56;5105919;28;20564;-75
2021/09/22 09:04:18;;;;;;;23.55;18.80;;;;;;;14.36;59.09;100757.59;5105600;28;20085;-74
2021/09/22 09:06:47;;;;;;;22.85;17.60;;;;;;;14.55;59.00;100759.63;5107534;28;20127;-77
2021/09/22 09:09:14;;;;;;;19.33;15.23;;;;;;;14.81;57.98;100748.69;5104390;28;20043;-73
2021/09/22 09:11:43;;;;;;;25.52;20.27;;;;;;;15.03;57.43;100739.75;5106387;28;20055;-74
2021/09/22 09:14:13;;;;;;;23.00;17.45;;;;;;;15.16;57.10;100752.88;5108947;28;20074;-74
2021/09/22 09:16:42;;;;;;;18.88;16.52;;;;;;;15.09;56.44;100750.75;5114909;28;20485;-73
2021/09/22 09:19:14;;;;;;;19.00;16.95;;;;;;;14.95;56.60;100743.06;5107799;28;20051;-73
2021/09/22 09:22:02;;;;;;;16.35;13.57;;;;;;;14.96;55.32;100741.25;5104822;28;20044;-73
2021/09/22 09:24:32;;;;;;;12.43;9.75;;;;;;;14.82;53.82;100737.94;5109143;28;20066;-73
2021/09/22 09:27:00;;;;;;;20.35;13.55;;;;;;;14.88;55.81;100731.25;5106622;28;20063;-75
2021/09/22 09:29:27;;;;;;;18.58;14.13;;;;;;;15.12;55.76;100725.69;5101151;28;20043;-74
2021/09/22 09:32:26;;;;;;;17.45;15.32;;;;;;;14.91;56.73;100726.53;5095901;28;20050;-73
2021/09/22 09:35:06;;;;;;;18.55;14.80;;;;;;;15.13;56.96;100724.72;5085008;28;20056;-73
2021/09/22 09:37:37;;;;;;;15.13;12.65;;;;;;;15.51;56.26;100730.44;5085403;28;20044;-74
2021/09/22 09:40:22;;;;;;;19.02;12.60;;;;;;;15.79;55.30;100715.59;5083677;28;20503;-75
2021/09/22 09:42:51;;;;;;;18.60;15.20;;;;;;;15.60;54.34;100714.50;5082889;28;20613;-72
2021/09/22 09:45:20;;;;;;;14.65;12.52;;;;;;;15.53;53.99;100709.84;5084478;28;20052;-73
2021/09/22 09:48:15;;;;;;;17.70;13.25;;;;;;;15.70;54.50;100716.34;5082771;28;20048;-74
2021/09/22 09:50:44;;;;;;;14.07;12.50;;;;;;;15.65;52.31;100730.09;5027263;28;20081;-73
2021/09/22 09:53:23;;;;;;;15.25;12.13;;;;;;;15.95;51.43;100718.59;5038356;28;20049;-73
2021/09/22 09:55:51;;;;;;;13.75;11.88;;;;;;;16.21;50.98;100716.31;5019019;28;20096;-75
2021/09/22 09:58:19;;;;;;;14.15;12.40;;;;;;;16.19;51.04;100710.28;5020671;28;20046;-73
2021/09/22 10:00:53;;;;;;;12.80;10.70;;;;;;;16.13;51.17;100718.78;5020227;28;20046;-74
2021/09/22 10:03:23;;;;;;;12.65;10.25;;;;;;;15.97;51.21;100718.47;5016991;28;20136;-73
2021/09/22 10:05:51;;;;;;;12.85;10.02;;;;;;;15.85;51.41;100725.72;5020038;28;20081;-73
2021/09/22 10:08:23;;;;;;;11.68;8.98;;;;;;;15.85;51.36;100715.06;5014612;28;20269;-73
2021/09/22 10:10:52;;;;;;;11.13;8.70;;;;;;;15.81;51.08;100718.94;5021375;28;20049;-71
2021/09/22 10:13:21;;;;;;;12.07;8.52;;;;;;;15.81;50.91;100722.47;5021816;28;20222;-72
2021/09/22 10:15:49;;;;;;;10.07;8.02;;;;;;;15.81;50.14;100717.16;5025561;28;20104;-74
2021/09/22 10:18:19;;;;;;;9.07;6.95;;;;;;;15.67;50.03;100715.66;5028328;28;20072;-75
2021/09/22 10:20:49;;;;;;;9.10;7.28;;;;;;;15.83;50.46;100707.22;5028695;28;20041;-72
2021/09/22 10:23:17;;;;;;;10.70;8.73;;;;;;;15.94;49.41;100713.44;5025368;28;20042;-75
2021/09/22 10:25:47;;;;;;;9.35;7.95;;;;;;;15.89;50.10;100711.16;5038809;28;20102;-74
2021/09/22 10:28:15;;;;;;;11.57;9.25;;;;;;;15.82;49.83;100708.16;5092691;28;20256;-77
2021/09/22 10:30:44;;;;;;;10.23;9.07;;;;;;;15.62;51.29;100703.72;5086744;28;20044;-74
2021/09/22 10:33:25;;;;;;;13.70;10.13;;;;;;;15.32;51.55;100700.03;5095045;28;20131;-73
2021/09/22 10:36:00;;;;;;;12.63;9.95;;;;;;;14.91;53.39;100699.09;5101776;28;20097;-75
2021/09/22 10:38:54;;;;;;;11.38;9.52;;;;;;;14.87;53.05;100697.63;5099618;28;20048;-74
2021/09/22 10:41:29;;;;;;;10.57;7.35;;;;;;;15.01;51.99;100694.66;5117128;28;20077;-74
2021/09/22 10:43:59;;;;;;;8.85;6.80;;;;;;;15.29;50.54;100695.00;5117076;28;20667;-76
2021/09/22 10:46:30;;;;;;;8.15;6.70;;;;;;;15.44;49.34;100692.84;5111184;28;20537;-76
2021/09/22 10:49:17;;;;;;;12.20;7.03;;;;;;;15.88;48.80;100692.63;5112549;28;20039;-73
2021/09/22 10:51:46;;;;;;;9.82;7.70;;;;;;;16.28;48.04;100689.09;5107105;28;20039;-74
2021/09/22 10:54:16;;;;;;;12.48;9.25;;;;;;;16.20;48.54;100697.78;5106580;28;20127;-79
2021/09/22 10:57:15;;;;;;;11.18;9.98;;;;;;;16.13;48.12;100697.47;5107864;28;20050;-74
2021/09/22 10:59:43;;;;;;;10.98;7.40;;;;;;;16.14;46.92;100688.50;5104061;28;20128;-74
2021/09/22 11:02:11;;;;;;;8.90;6.47;;;;;;;16.26;47.26;100683.91;5107742;28;20046;-72
2021/09/22 11:04:59;;;;;;;8.90;7.50;;;;;;;16.41;47.21;100684.34;5109692;28;20047;-74
2021/09/22 11:08:01;;;;;;;10.77;9.32;;;;;;;16.47;46.28;100675.78;5106016;28;20050;-75
2021/09/22 11:10:53;;;;;;;9.30;7.07;;;;;;;16.40;46.14;100678.19;5118077;27;20047;-75
2021/09/22 11:13:40;;;;;;;9.75;7.72;;;;;;;16.14;46.25;100682.34;5127957;27;20108;-74
2021/09/22 11:16:26;;;;;;;8.85;7.63;;;;;;;15.90;47.44;100682.69;5128891;27;20055;-74